Terminal Aerodrome Forecast
Issued by NWS

Home | Current Version | Previous Version | Text Only | Print | Product List | Glossary On
Versions: 1 2 3 4 5 6 7 8 9 10 11 12 13 14 15 16 17 18 19 20
000
FTUS43 KLSX 210600 AAA
TAFSUS
TAF AMD
KSUS 210617Z 2106/2206 25008KT P6SM VCSH BKN050
     FM210800 29008KT P6SM SCT120
     FM211500 32014G20KT P6SM FEW040
     FM212300 35007KT P6SM SCT250=

USA.gov is the U.S. government's official web portal to all federal, state and local government web resources and services.